Time;durP1;ratioP1;P1;durP2;ratioP2;P2;SDS_P1;SDS_P2;PMS_P1;PMS_P2;Temp;Humidity;BMP_temperature;BMP_pressure;BME280_temperature;BME280_humidity;BME280_pressure;Samples;Min_cycle;Max_cycle;Signal;HPM_P1;HPM_P2
2022/01/02 00:01:47;;;;;;;11.68;9.10;;;;;;;4.85;100.00;101011.88;6181953;23;19915;-81
2022/01/02 00:04:17;;;;;;;12.93;9.65;;;;;;;4.79;100.00;101016.13;6156912;23;20024;-80
2022/01/02 00:06:53;;;;;;;12.68;9.38;;;;;;;4.75;100.00;101018.03;6181391;23;20057;-80
2022/01/02 00:09:39;;;;;;;13.73;9.25;;;;;;;4.63;100.00;101005.31;6182075;23;20032;-81
2022/01/02 00:12:14;;;;;;;12.50;9.50;;;;;;;4.75;100.00;101032.56;6180849;23;20100;-81
2022/01/02 00:14:44;;;;;;;12.95;8.90;;;;;;;4.74;100.00;101043.94;6182093;23;20008;-81
2022/01/02 00:17:10;;;;;;;12.50;9.30;;;;;;;4.69;100.00;101036.81;6181759;23;20017;-81
2022/01/02 00:19:40;;;;;;;13.50;9.32;;;;;;;4.60;100.00;101031.59;6157280;23;20001;-80
2022/01/02 00:22:14;;;;;;;13.35;9.70;;;;;;;4.60;100.00;101026.09;6181350;23;20020;-80
2022/01/02 00:24:44;;;;;;;13.57;9.82;;;;;;;4.58;100.00;101024.88;6181728;23;20017;-80
2022/01/02 00:27:11;;;;;;;13.20;9.05;;;;;;;4.65;100.00;101028.50;6183128;23;20474;-80
2022/01/02 00:29:38;;;;;;;13.20;9.93;;;;;;;4.72;100.00;101021.53;6183391;23;20017;-80
2022/01/02 00:32:06;;;;;;;13.65;10.23;;;;;;;4.68;100.00;101027.78;6156969;23;20431;-80
2022/01/02 00:34:37;;;;;;;14.55;10.75;;;;;;;4.73;100.00;101029.41;6183479;23;20020;-80
2022/01/02 00:37:04;;;;;;;16.08;12.02;;;;;;;4.71;100.00;101034.47;6181621;23;20470;-82
2022/01/02 00:39:29;;;;;;;13.13;11.07;;;;;;;4.75;100.00;101037.28;6157493;23;20013;-82
2022/01/02 00:42:10;;;;;;;13.25;11.15;;;;;;;4.84;100.00;101029.53;6183345;23;20390;-81
2022/01/02 00:45:05;;;;;;;12.20;9.25;;;;;;;5.01;100.00;101023.47;6181813;23;20471;-81
2022/01/02 00:47:44;;;;;;;13.68;9.98;;;;;;;5.17;100.00;101015.78;6181641;23;20013;-82
2022/01/02 00:50:12;;;;;;;13.73;10.38;;;;;;;5.18;100.00;101011.09;6181040;23;20092;-81
2022/01/02 00:52:46;;;;;;;12.70;9.00;;;;;;;5.18;100.00;101027.59;6181180;23;20016;-82
2022/01/02 00:55:20;;;;;;;11.45;8.10;;;;;;;5.04;100.00;101033.72;6156700;23;20452;-80
2022/01/02 00:57:59;;;;;;;10.77;8.32;;;;;;;4.75;100.00;101015.28;6157150;23;20352;-80
2022/01/02 01:00:27;;;;;;;11.18;8.07;;;;;;;4.67;100.00;101015.19;6156782;23;20467;-80
2022/01/02 01:02:58;;;;;;;10.63;7.32;;;;;;;4.68;100.00;101011.28;6131845;23;20044;-81
2022/01/02 01:05:28;;;;;;;8.52;5.63;;;;;;;4.75;100.00;100999.59;6156728;23;20075;-80
2022/01/02 01:08:00;;;;;;;8.95;6.80;;;;;;;4.82;100.00;101010.66;6181714;23;20020;-80
2022/01/02 01:10:28;;;;;;;8.43;6.65;;;;;;;4.79;100.00;101005.13;6156278;23;20432;-80
2022/01/02 01:12:56;;;;;;;11.27;7.82;;;;;;;4.69;100.00;101015.59;6181378;23;20040;-80
2022/01/02 01:15:24;;;;;;;13.32;8.55;;;;;;;4.44;100.00;101006.25;6181556;23;20064;-80
2022/01/02 01:17:55;;;;;;;12.05;8.27;;;;;;;4.30;100.00;101011.53;6183118;23;20469;-80
2022/01/02 01:20:22;;;;;;;12.77;8.35;;;;;;;4.26;100.00;101010.72;6181082;23;20017;-80
2022/01/02 01:22:48;;;;;;;13.27;8.85;;;;;;;4.11;100.00;100986.97;6181383;23;20080;-80
2022/01/02 01:25:17;;;;;;;11.63;8.57;;;;;;;4.15;100.00;100987.78;6182461;23;20001;-80
2022/01/02 01:27:52;;;;;;;13.15;8.93;;;;;;;4.12;100.00;100994.03;6156933;23;20088;-80
2022/01/02 01:30:20;;;;;;;14.00;10.23;;;;;;;3.96;100.00;100991.47;6155402;23;20031;-80
2022/01/02 01:32:46;;;;;;;13.93;9.57;;;;;;;3.98;100.00;100994.59;6179724;23;20012;-80
2022/01/02 01:35:13;;;;;;;14.02;10.05;;;;;;;3.97;100.00;100990.28;6180604;23;20013;-80
2022/01/02 01:37:39;;;;;;;14.50;9.68;;;;;;;3.94;100.00;100992.97;6181004;23;20016;-80
2022/01/02 01:40:08;;;;;;;13.98;9.40;;;;;;;3.93;100.00;100994.91;6182555;23;20144;-80
2022/01/02 01:42:40;;;;;;;13.10;8.65;;;;;;;3.93;100.00;100981.19;6180997;23;20032;-80
2022/01/02 01:47:58;;;;;;;12.02;8.13;;;;;;;3.81;100.00;100986.09;6157973;23;20033;-80
2022/01/02 01:50:28;;;;;;;9.88;7.63;;;;;;;3.71;100.00;100990.25;6181139;23;20092;-81
2022/01/02 01:52:54;;;;;;;12.48;8.13;;;;;;;3.72;100.00;100992.63;6156231;23;20013;-80
2022/01/02 01:55:22;;;;;;;11.60;8.15;;;;;;;3.65;100.00;100989.78;6181373;23;20060;-80
2022/01/02 01:57:48;;;;;;;11.88;8.52;;;;;;;3.68;100.00;100997.25;6182854;23;20034;-80
2022/01/02 02:00:15;;;;;;;11.82;8.30;;;;;;;3.61;100.00;100991.66;6131440;23;20021;-80
2022/01/02 02:02:45;;;;;;;11.02;7.80;;;;;;;3.43;100.00;100979.63;6146506;23;20029;-82
2022/01/02 02:05:13;;;;;;;10.73;7.93;;;;;;;3.49;100.00;100996.53;6131605;23;20013;-82
2022/01/02 02:07:43;;;;;;;11.48;7.88;;;;;;;3.50;100.00;100987.16;6108240;23;20063;-82
2022/01/02 02:10:18;;;;;;;11.82;8.52;;;;;;;3.50;100.00;100979.72;6132864;23;20012;-82
2022/01/02 02:12:46;;;;;;;11.02;8.63;;;;;;;3.60;100.00;100981.84;6131180;23;20017;-82
2022/01/02 02:15:14;;;;;;;12.57;8.30;;;;;;;3.57;100.00;100982.59;6131611;23;20017;-82
2022/01/02 02:17:39;;;;;;;11.70;7.93;;;;;;;3.45;100.00;100982.78;6131319;23;20382;-82
2022/01/02 02:20:31;;;;;;;11.23;8.13;;;;;;;3.37;100.00;100986.56;6131809;23;20021;-82
2022/01/02 02:23:00;;;;;;;11.20;7.97;;;;;;;3.27;100.00;100981.69;6132391;23;20017;-82
2022/01/02 02:25:31;;;;;;;10.73;7.97;;;;;;;3.23;100.00;100975.34;6157775;23;20021;-82
2022/01/02 02:28:05;;;;;;;16.45;8.55;;;;;;;3.06;100.00;100975.81;6133344;23;20118;-82
2022/01/02 02:30:34;;;;;;;11.70;7.97;;;;;;;3.09;100.00;100975.06;6158338;23;20032;-82
2022/01/02 02:33:02;;;;;;;24.35;9.45;;;;;;;3.06;100.00;100975.81;6132809;23;20346;-82
2022/01/02 02:35:29;;;;;;;12.20;8.73;;;;;;;2.95;100.00;100963.84;6133524;23;20087;-82
2022/01/02 02:37:55;;;;;;;12.50;8.90;;;;;;;2.86;100.00;100966.03;6158293;23;20387;-82
2022/01/02 02:40:22;;;;;;;12.13;8.15;;;;;;;2.76;100.00;100956.44;6157289;23;20041;-84
2022/01/02 02:42:56;;;;;;;11.68;8.85;;;;;;;2.76;100.00;100950.94;6132597;23;20028;-84
2022/01/02 02:51:08;;;;;;;12.68;8.38;;;;;;;2.69;100.00;100935.19;6137067;23;20052;-84
2022/01/02 02:53:36;;;;;;;13.10;9.30;;;;;;;2.68;100.00;100932.78;6157498;23;20044;-84
2022/01/02 02:56:13;;;;;;;13.10;9.27;;;;;;;2.73;100.00;100938.78;6133453;23;20099;-84
2022/01/02 02:58:41;;;;;;;13.07;9.32;;;;;;;2.68;100.00;100928.13;6159704;23;20088;-84
2022/01/02 03:01:10;;;;;;;13.68;9.48;;;;;;;2.66;100.00;100924.97;6156983;23;20021;-84
2022/01/02 03:03:36;;;;;;;14.95;9.65;;;;;;;2.66;100.00;100935.91;6132736;23;20574;-84
2022/01/02 03:06:02;;;;;;;14.07;10.05;;;;;;;2.65;100.00;100917.88;6132529;23;20052;-84
2022/01/02 03:08:28;;;;;;;13.30;10.00;;;;;;;2.61;100.00;100930.72;6181492;23;20009;-84
2022/01/02 03:10:54;;;;;;;12.80;9.27;;;;;;;2.59;100.00;100935.75;6157369;23;20017;-84
2022/01/02 03:13:19;;;;;;;13.38;9.75;;;;;;;2.57;100.00;100927.13;6156566;23;20017;-84
2022/01/02 03:15:45;;;;;;;14.13;9.85;;;;;;;2.54;100.00;100929.78;6157637;23;20017;-84
2022/01/02 03:18:10;;;;;;;13.65;9.32;;;;;;;2.52;100.00;100912.91;6156937;23;20027;-84
2022/01/02 03:20:36;;;;;;;14.35;9.98;;;;;;;2.58;100.00;100923.22;6157804;23;20024;-86
2022/01/02 03:23:01;;;;;;;13.30;9.73;;;;;;;2.57;100.00;100927.13;6157210;23;20028;-84
2022/01/02 03:25:27;;;;;;;16.00;10.25;;;;;;;2.53;100.00;100915.31;6132714;23;20016;-84
2022/01/02 03:27:53;;;;;;;14.05;10.27;;;;;;;2.59;100.00;100922.06;6182517;23;20020;-84
2022/01/02 03:30:18;;;;;;;13.50;9.65;;;;;;;2.49;100.00;100903.50;6157005;23;20013;-84
2022/01/02 03:32:44;;;;;;;12.43;9.07;;;;;;;2.53;100.00;100907.09;6132488;23;20024;-84
2022/01/02 03:35:10;;;;;;;11.65;8.65;;;;;;;2.46;100.00;100898.75;6156777;23;20040;-85
2022/01/02 03:37:36;;;;;;;12.88;9.07;;;;;;;2.40;100.00;100911.13;6132457;23;20020;-82
2022/01/02 03:40:05;;;;;;;13.45;8.82;;;;;;;2.39;100.00;100911.50;6157420;23;20021;-82
2022/01/02 03:42:30;;;;;;;13.52;10.25;;;;;;;2.28;100.00;100903.06;6108068;23;20091;-84
2022/01/02 03:44:58;;;;;;;15.70;10.07;;;;;;;2.31;100.00;100899.59;6157378;23;20078;-84
2022/01/02 03:47:24;;;;;;;13.70;10.30;;;;;;;2.25;100.00;100890.09;6132518;23;20013;-82
2022/01/02 03:49:50;;;;;;;14.23;10.27;;;;;;;2.24;100.00;100896.72;6132632;23;20017;-82
2022/01/02 03:52:16;;;;;;;13.20;9.32;;;;;;;2.19;100.00;100883.31;6183190;23;20347;-82
2022/01/02 03:54:42;;;;;;;13.50;9.55;;;;;;;2.22;100.00;100885.34;6157405;23;20024;-82
2022/01/02 03:57:07;;;;;;;14.98;9.65;;;;;;;2.14;100.00;100880.88;6157357;23;20013;-82
2022/01/02 03:59:33;;;;;;;11.45;8.85;;;;;;;2.11;100.00;100876.91;6182938;23;20080;-82
2022/01/02 04:01:58;;;;;;;12.93;9.43;;;;;;;2.11;100.00;100876.91;6132515;23;20005;-82
2022/01/02 04:04:24;;;;;;;12.70;9.00;;;;;;;2.12;100.00;100877.69;6131595;23;20017;-82
2022/01/02 04:06:50;;;;;;;12.98;9.65;;;;;;;2.13;100.00;100877.34;6157228;23;20020;-81
2022/01/02 04:09:16;;;;;;;13.52;9.68;;;;;;;2.04;100.00;100862.28;6183123;23;20056;-82
2022/01/02 04:11:42;;;;;;;14.88;10.32;;;;;;;2.02;100.00;100873.59;6132045;23;20067;-82
2022/01/02 04:14:07;;;;;;;13.95;10.27;;;;;;;2.09;100.00;100879.22;6157238;23;20035;-85
2022/01/02 04:16:33;;;;;;;13.27;10.18;;;;;;;2.13;100.00;100879.28;6156566;23;20087;-84
2022/01/02 04:18:59;;;;;;;17.20;11.57;;;;;;;2.20;100.00;100874.75;6156663;23;20336;-84
2022/01/02 04:21:24;;;;;;;18.15;12.40;;;;;;;2.29;100.00;100871.78;6156553;23;20017;-86
2022/01/02 04:23:50;;;;;;;16.58;11.80;;;;;;;2.30;100.00;100870.66;6156536;23;20024;-84
2022/01/02 04:26:15;;;;;;;16.88;11.52;;;;;;;2.34;100.00;100874.25;6182932;23;20434;-84
2022/01/02 04:28:41;;;;;;;16.98;11.68;;;;;;;2.38;100.00;100874.31;6132120;23;20017;-83
2022/01/02 04:31:09;;;;;;;15.23;11.07;;;;;;;2.40;100.00;100878.25;6132438;23;20021;-84
2022/01/02 04:33:36;;;;;;;14.82;11.65;;;;;;;2.40;100.00;100872.78;6157135;23;20097;-84
2022/01/02 04:36:03;;;;;;;14.05;10.48;;;;;;;2.43;100.00;100869.31;6156853;23;20027;-84
2022/01/02 04:38:29;;;;;;;15.57;11.57;;;;;;;2.31;100.00;100864.78;6155845;23;20020;-84
2022/01/02 04:40:57;;;;;;;12.50;9.90;;;;;;;2.27;100.00;100854.91;6156523;23;20067;-84
2022/01/02 04:43:23;;;;;;;11.63;9.45;;;;;;;2.28;100.00;100859.25;6131590;23;20355;-84
2022/01/02 04:45:48;;;;;;;15.00;10.73;;;;;;;2.20;100.00;100858.31;6183006;23;20005;-84
2022/01/02 04:48:15;;;;;;;11.98;9.57;;;;;;;2.15;100.00;100860.53;6131572;23;20075;-86
2022/01/02 04:50:45;;;;;;;13.57;10.32;;;;;;;2.14;100.00;100865.25;6132248;23;20016;-84
2022/01/02 04:53:10;;;;;;;13.15;9.60;;;;;;;2.12;100.00;100853.06;6131987;23;20020;-82
2022/01/02 04:55:36;;;;;;;13.65;9.90;;;;;;;2.10;100.00;100849.91;6107281;23;20350;-82
2022/01/02 04:58:02;;;;;;;13.23;9.63;;;;;;;2.07;100.00;100847.88;6131712;23;20463;-82
2022/01/02 05:00:28;;;;;;;12.02;9.27;;;;;;;2.10;100.00;100855.38;6107306;23;20096;-82
2022/01/02 05:02:54;;;;;;;12.60;9.70;;;;;;;2.05;100.00;100852.91;6155701;23;20040;-82
2022/01/02 05:05:20;;;;;;;13.38;9.93;;;;;;;2.01;100.00;100846.59;6156465;23;20020;-82
2022/01/02 05:07:46;;;;;;;14.43;10.38;;;;;;;2.03;100.00;100856.00;6182585;23;20017;-82
2022/01/02 05:10:13;;;;;;;14.77;10.52;;;;;;;1.94;100.00;100838.22;6155824;23;20021;-82
2022/01/02 05:12:39;;;;;;;16.20;10.20;;;;;;;1.94;100.00;100843.72;6131803;23;20017;-82
2022/01/02 05:17:50;;;;;;;15.50;9.75;;;;;;;1.96;100.00;100846.84;6156045;23;20024;-84
2022/01/02 05:20:16;;;;;;;13.93;10.60;;;;;;;1.83;100.00;100833.31;6156212;23;20005;-84
2022/01/02 05:22:42;;;;;;;15.63;10.25;;;;;;;1.79;100.00;100829.72;6156019;23;20067;-84
2022/01/02 05:25:08;;;;;;;14.25;10.13;;;;;;;1.84;100.00;100823.97;6131458;23;20200;-84
2022/01/02 05:27:33;;;;;;;15.82;10.20;;;;;;;1.78;100.00;100822.66;6156339;23;20574;-84
2022/01/02 05:29:59;;;;;;;13.85;10.10;;;;;;;1.83;100.00;100827.84;6155932;23;20044;-84
2022/01/02 05:32:25;;;;;;;13.00;10.18;;;;;;;1.77;100.00;100829.28;6131165;23;20021;-87
2022/01/02 05:34:51;;;;;;;13.98;9.93;;;;;;;1.79;100.00;100832.44;6155764;23;20064;-86
2022/01/02 05:37:16;;;;;;;12.90;10.10;;;;;;;1.70;100.00;100828.34;6155942;23;20025;-86
2022/01/02 05:39:42;;;;;;;13.02;9.90;;;;;;;1.69;100.00;100827.56;6155915;23;20052;-86
2022/01/02 05:42:09;;;;;;;13.32;10.20;;;;;;;1.60;100.00;100813.28;6156354;23;20013;-86
2022/01/02 05:44:35;;;;;;;13.40;9.77;;;;;;;1.63;100.00;100820.78;6107110;23;20025;-86
2022/01/02 05:47:00;;;;;;;13.63;10.05;;;;;;;1.63;100.00;100820.78;6182231;23;20334;-86
2022/01/02 05:49:26;;;;;;;13.35;10.40;;;;;;;1.58;100.00;100806.59;6155635;23;20450;-86
2022/01/02 05:51:52;;;;;;;14.00;10.20;;;;;;;1.66;100.00;100827.47;6107414;23;20446;-83
2022/01/02 05:54:18;;;;;;;12.00;9.45;;;;;;;1.66;100.00;100822.00;6155947;23;20048;-84
2022/01/02 05:56:45;;;;;;;12.40;9.20;;;;;;;1.56;100.00;100809.69;6156043;23;20465;-84
2022/01/02 05:59:10;;;;;;;13.77;10.05;;;;;;;1.53;100.00;100807.69;6132796;23;20013;-84
2022/01/02 06:01:37;;;;;;;13.13;10.20;;;;;;;1.50;100.00;100808.38;6158009;23;20021;-84
2022/01/02 06:04:02;;;;;;;14.68;9.52;;;;;;;1.50;100.00;100807.59;6133121;23;20509;-84
2022/01/02 06:06:28;;;;;;;15.20;9.88;;;;;;;1.48;100.00;100801.69;6133243;23;20210;-84
2022/01/02 06:08:54;;;;;;;16.52;11.07;;;;;;;1.56;100.00;100795.22;6157744;23;20011;-86
2022/01/02 06:11:20;;;;;;;16.15;11.18;;;;;;;1.60;100.00;100794.16;6109368;23;20013;-87
2022/01/02 06:13:45;;;;;;;17.27;11.98;;;;;;;1.55;100.00;100780.75;6157991;23;20139;-87
2022/01/02 06:16:12;;;;;;;16.45;11.68;;;;;;;1.60;100.00;100785.16;6133636;23;20079;-86
2022/01/02 06:18:38;;;;;;;16.02;12.13;;;;;;;1.63;100.00;100790.69;6133583;23;20091;-83
2022/01/02 06:21:03;;;;;;;15.85;12.32;;;;;;;1.65;100.00;100798.53;6158364;23;20033;-87
2022/01/02 06:23:29;;;;;;;16.05;12.65;;;;;;;1.65;100.00;100782.94;6184156;23;20009;-86
2022/01/02 06:25:55;;;;;;;17.88;12.93;;;;;;;1.70;100.00;100777.16;6109269;23;20055;-86
2022/01/02 06:28:20;;;;;;;22.02;13.70;;;;;;;1.76;100.00;100778.47;6132983;23;20354;-86
2022/01/02 06:30:46;;;;;;;19.05;13.43;;;;;;;1.79;100.00;100787.88;6157876;23;20009;-86
2022/01/02 06:33:11;;;;;;;19.40;14.60;;;;;;;1.74;100.00;100780.75;6155848;23;20056;-86
2022/01/02 06:35:37;;;;;;;19.42;14.55;;;;;;;1.79;100.00;100782.41;6130859;23;20682;-86
2022/01/02 06:38:14;;;;;;;18.55;14.23;;;;;;;1.81;100.00;100783.66;6182043;23;20013;-86
2022/01/02 06:40:41;;;;;;;17.08;13.38;;;;;;;1.72;100.00;100777.59;6130918;23;20148;-86
2022/01/02 06:43:08;;;;;;;17.08;13.63;;;;;;;1.75;100.00;100789.75;6155454;23;20012;-86
2022/01/02 06:45:37;;;;;;;18.52;13.27;;;;;;;1.74;100.00;100780.75;6131190;23;20009;-86
2022/01/02 06:48:03;;;;;;;17.73;13.30;;;;;;;1.74;100.00;100774.53;6108584;23;20084;-86
2022/01/02 06:50:30;;;;;;;19.77;14.30;;;;;;;1.64;100.00;100764.94;6157801;23;20029;-86
2022/01/02 06:52:55;;;;;;;18.17;13.77;;;;;;;1.67;100.00;100764.22;6157483;23;20071;-86
2022/01/02 06:55:21;;;;;;;19.85;14.55;;;;;;;1.71;100.00;100765.06;6132844;23;20017;-87
2022/01/02 06:57:47;;;;;;;19.75;14.95;;;;;;;1.72;100.00;100754.94;6157855;23;20092;-86
2022/01/02 07:00:15;;;;;;;22.00;14.88;;;;;;;1.73;100.00;100751.84;6157186;23;20063;-86
2022/01/02 07:02:41;;;;;;;19.30;14.60;;;;;;;1.73;100.00;100762.00;6182012;23;20347;-87
2022/01/02 07:05:07;;;;;;;23.75;18.58;;;;;;;1.78;100.00;100756.25;6133336;23;20013;-84
2022/01/02 07:07:32;;;;;;;23.88;18.00;;;;;;;1.78;100.00;100754.28;6157106;23;20048;-85
2022/01/02 07:09:58;;;;;;;27.13;19.42;;;;;;;1.84;100.00;100763.00;6183784;23;20012;-86
2022/01/02 07:12:24;;;;;;;25.50;19.10;;;;;;;1.85;100.00;100764.56;6183565;23;20047;-85
2022/01/02 07:14:50;;;;;;;24.73;19.60;;;;;;;1.87;100.00;100765.78;6108108;23;20017;-86
2022/01/02 07:17:16;;;;;;;28.17;20.45;;;;;;;1.86;100.00;100753.25;6157783;23;20133;-86
2022/01/02 07:19:41;;;;;;;27.52;20.52;;;;;;;1.88;100.00;100750.97;6157061;23;20005;-85
2022/01/02 07:22:07;;;;;;;27.58;21.35;;;;;;;1.94;100.00;100750.69;6157514;23;20084;-85
2022/01/02 07:24:34;;;;;;;27.38;20.95;;;;;;;1.99;100.00;100748.44;6132748;23;20387;-87
2022/01/02 07:26:59;;;;;;;24.42;17.27;;;;;;;2.06;100.00;100758.72;6183370;23;20447;-85
2022/01/02 07:29:25;;;;;;;22.50;17.55;;;;;;;2.12;100.00;100758.06;6131059;23;20011;-86
2022/01/02 07:31:50;;;;;;;26.00;18.95;;;;;;;2.15;100.00;100742.84;6182313;23;20351;-86
2022/01/02 07:34:16;;;;;;;28.10;21.90;;;;;;;2.24;100.00;100759.84;6181491;23;20452;-86
2022/01/02 07:36:44;;;;;;;30.98;23.48;;;;;;;2.30;100.00;100750.19;6155842;23;20005;-86
2022/01/02 07:39:12;;;;;;;32.13;26.48;;;;;;;2.35;100.00;100750.66;6182018;23;20316;-86
2022/01/02 07:41:37;;;;;;;33.85;24.80;;;;;;;2.41;100.00;100742.94;6155942;23;20016;-87
2022/01/02 07:44:03;;;;;;;29.65;22.73;;;;;;;2.48;100.00;100743.06;6131769;23;20017;-86
2022/01/02 07:46:31;;;;;;;27.58;20.92;;;;;;;2.55;100.00;100740.44;6155639;23;20009;-86
2022/01/02 07:48:56;;;;;;;26.08;20.15;;;;;;;2.46;100.00;100728.97;6182259;23;20427;-86
2022/01/02 07:51:22;;;;;;;30.05;25.10;;;;;;;2.50;100.00;100738.03;6155743;23;20028;-86
2022/01/02 07:53:47;;;;;;;41.17;27.65;;;;;;;2.52;100.00;100732.97;6182619;23;20172;-86
2022/01/02 07:56:13;;;;;;;37.72;24.27;;;;;;;2.47;100.00;100730.53;6156282;23;20483;-86
2022/01/02 07:58:39;;;;;;;43.90;26.02;;;;;;;2.56;100.00;100739.28;6155148;23;20439;-86
2022/01/02 08:01:05;;;;;;;34.88;24.65;;;;;;;2.59;100.00;100733.06;6131928;23;20017;-86
2022/01/02 08:03:30;;;;;;;30.83;20.98;;;;;;;2.71;100.00;100735.63;6156305;23;20016;-81
2022/01/02 08:05:55;;;;;;;24.67;18.85;;;;;;;2.75;100.00;100730.22;6181362;23;20386;-84
2022/01/02 08:08:21;;;;;;;24.77;18.48;;;;;;;2.89;100.00;100732.38;6130698;23;20024;-82
2022/01/02 08:10:46;;;;;;;22.17;16.75;;;;;;;2.98;100.00;100738.38;6106922;23;20021;-84
2022/01/02 08:13:12;;;;;;;21.40;16.65;;;;;;;3.15;100.00;100733.19;6156695;23;20416;-84
2022/01/02 08:15:38;;;;;;;19.90;15.90;;;;;;;3.23;100.00;100712.13;6183021;23;20080;-84
2022/01/02 08:18:03;;;;;;;19.00;15.18;;;;;;;3.25;100.00;100721.56;6159100;23;20009;-83
2022/01/02 08:20:29;;;;;;;19.73;15.13;;;;;;;3.30;100.00;100709.47;6155994;23;20055;-81
2022/01/02 08:22:56;;;;;;;19.00;15.38;;;;;;;3.42;100.00;100709.25;6156599;23;20040;-84
2022/01/02 08:25:22;;;;;;;19.83;15.30;;;;;;;3.54;100.00;100700.00;6156740;23;20020;-84
2022/01/02 08:27:47;;;;;;;21.00;16.48;;;;;;;3.83;100.00;100698.38;6157007;23;20013;-84
2022/01/02 08:30:13;;;;;;;19.23;14.48;;;;;;;4.05;100.00;100691.94;6156608;23;20020;-84
2022/01/02 08:32:39;;;;;;;18.58;14.85;;;;;;;4.24;100.00;100699.97;6156040;23;20021;-84
2022/01/02 08:35:05;;;;;;;20.10;14.55;;;;;;;4.36;100.00;100688.72;6155633;23;20390;-84
2022/01/02 08:37:32;;;;;;;20.23;14.07;;;;;;;4.34;100.00;100692.97;6156316;23;20013;-81
2022/01/02 08:39:57;;;;;;;17.77;14.57;;;;;;;4.44;100.00;100704.09;6132025;23;20017;-82
2022/01/02 08:42:23;;;;;;;18.88;15.63;;;;;;;4.40;100.00;100686.00;6132382;23;20436;-87
2022/01/02 08:44:49;;;;;;;21.05;17.08;;;;;;;4.40;100.00;100684.03;6132403;23;20071;-86
2022/01/02 08:47:14;;;;;;;22.83;17.45;;;;;;;4.48;100.00;100693.13;6156524;23;20404;-86
2022/01/02 08:49:40;;;;;;;19.40;16.05;;;;;;;4.50;100.00;100680.56;6155995;23;20009;-86
2022/01/02 08:52:06;;;;;;;26.33;17.08;;;;;;;4.60;100.00;100679.88;6155771;23;20092;-86
2022/01/02 08:54:31;;;;;;;18.77;14.73;;;;;;;4.67;100.00;100690.91;6155883;23;20467;-86
2022/01/02 08:56:57;;;;;;;17.92;13.60;;;;;;;4.62;100.00;100676.75;6182766;23;20013;-86
2022/01/02 08:59:27;;;;;;;18.80;13.80;;;;;;;4.70;100.00;100678.38;6182169;23;20571;-86
2022/01/02 09:01:53;;;;;;;17.95;13.38;;;;;;;4.79;100.00;100680.78;6182830;23;20087;-82
2022/01/02 09:04:18;;;;;;;16.38;13.45;;;;;;;4.82;100.00;100658.81;6081999;23;20021;-82
2022/01/02 09:06:44;;;;;;;17.23;13.48;;;;;;;4.95;100.00;100664.78;6125007;23;20020;-82
2022/01/02 09:09:09;;;;;;;16.30;13.02;;;;;;;5.01;100.00;100661.31;6123960;23;20089;-82
2022/01/02 09:11:35;;;;;;;18.90;13.23;;;;;;;4.93;100.00;100647.91;6100208;23;20096;-82
2022/01/02 09:14:02;;;;;;;16.80;12.65;;;;;;;4.96;100.00;100641.63;6124305;23;20033;-82
2022/01/02 09:16:28;;;;;;;17.52;12.65;;;;;;;5.09;100.00;100651.13;6126178;23;20060;-82
2022/01/02 09:18:54;;;;;;;15.15;11.93;;;;;;;5.14;100.00;100648.00;6125694;23;20017;-82
2022/01/02 09:21:19;;;;;;;14.60;11.60;;;;;;;5.23;100.00;100639.41;6125164;23;20388;-85
2022/01/02 09:23:45;;;;;;;18.20;12.15;;;;;;;5.24;100.00;100625.28;6124323;23;20037;-84
2022/01/02 09:26:10;;;;;;;15.63;11.60;;;;;;;5.43;100.00;100626.91;6125047;23;20098;-81
2022/01/02 09:28:36;;;;;;;17.88;13.23;;;;;;;5.37;100.00;100629.25;6123840;23;20025;-85
2022/01/02 09:31:02;;;;;;;16.45;12.55;;;;;;;5.42;100.00;100637.13;6101055;23;20020;-87
2022/01/02 09:33:27;;;;;;;17.30;11.73;;;;;;;5.42;100.00;100620.63;6124125;23;20347;-86
2022/01/02 09:35:53;;;;;;;15.55;12.10;;;;;;;5.47;100.00;100612.00;6098901;23;20041;-86
2022/01/02 09:38:18;;;;;;;17.13;12.65;;;;;;;5.56;100.00;100586.84;6124115;23;20025;-82
2022/01/02 09:40:44;;;;;;;16.70;12.27;;;;;;;5.63;100.00;100620.69;6100736;23;20060;-86
2022/01/02 09:43:09;;;;;;;14.40;12.18;;;;;;;5.70;100.00;100616.38;6150089;23;20021;-86
2022/01/02 09:45:38;;;;;;;17.02;12.43;;;;;;;5.79;100.00;100616.78;6099040;23;20010;-85
2022/01/02 09:48:07;;;;;;;16.75;12.60;;;;;;;5.95;100.00;100618.03;6124841;23;20495;-85
2022/01/02 09:50:35;;;;;;;14.98;11.82;;;;;;;5.97;100.00;100617.63;6099140;23;20093;-84
2022/01/02 09:53:00;;;;;;;15.90;12.20;;;;;;;6.00;100.00;100605.84;6124099;23;20016;-85
2022/01/02 09:55:26;;;;;;;16.15;12.15;;;;;;;6.02;100.00;100592.47;6098285;23;20013;-86
2022/01/02 09:57:53;;;;;;;17.67;13.30;;;;;;;6.15;100.00;100588.13;6147921;23;20077;-85
2022/01/02 10:00:20;;;;;;;16.00;12.27;;;;;;;6.37;100.00;100581.44;6098656;23;20089;-86
2022/01/02 10:03:06;;;;;;;17.98;13.10;;;;;;;6.52;100.00;100566.44;6155546;23;20043;-85
2022/01/02 10:05:50;;;;;;;16.35;12.75;;;;;;;6.70;100.00;100565.63;6179829;23;20021;-86
2022/01/02 10:08:28;;;;;;;19.83;14.15;;;;;;;6.81;100.00;100569.13;6179994;23;20017;-82
2022/01/02 10:11:08;;;;;;;16.80;13.63;;;;;;;6.99;100.00;100561.59;6130890;23;20017;-83
2022/01/02 10:13:44;;;;;;;17.38;12.35;;;;;;;7.05;100.00;100560.00;6131961;23;20147;-82
2022/01/02 10:16:19;;;;;;;18.52;13.63;;;;;;;7.23;100.00;100548.88;6182367;23;20017;-83
2022/01/02 10:18:46;;;;;;;16.05;13.25;;;;;;;7.39;100.00;100554.72;6152444;23;20063;-83
2022/01/02 10:21:35;;;;;;;16.90;13.48;;;;;;;7.57;100.00;100551.81;6154952;23;20419;-83
2022/01/02 10:24:23;;;;;;;18.40;13.60;;;;;;;7.66;100.00;100554.94;6130741;23;20075;-84
2022/01/02 10:27:13;;;;;;;16.77;12.80;;;;;;;7.85;100.00;100541.38;6105990;23;20009;-84
2022/01/02 10:29:55;;;;;;;16.52;12.95;;;;;;;7.84;100.00;100539.03;6153530;23;20017;-83
2022/01/02 10:32:35;;;;;;;17.80;13.10;;;;;;;8.02;100.00;100545.19;6155535;23;20128;-86
2022/01/02 10:35:18;;;;;;;17.13;12.82;;;;;;;8.08;100.00;100529.75;6155838;23;20020;-84
2022/01/02 10:37:50;;;;;;;19.50;13.13;;;;;;;8.16;100.00;100536.81;6179856;23;20013;-83
2022/01/02 10:40:26;;;;;;;18.33;12.98;;;;;;;8.26;100.00;100530.38;6129623;23;20020;-81
2022/01/02 10:42:53;;;;;;;16.58;13.63;;;;;;;8.52;100.00;100544.78;6179928;23;20021;-83
2022/01/02 10:45:38;;;;;;;17.02;13.38;;;;;;;8.66;99.76;100534.34;6130603;23;20041;-83
2022/01/02 10:48:07;;;;;;;15.60;12.05;;;;;;;8.87;99.21;100527.78;6107946;23;20021;-83
2022/01/02 10:50:33;;;;;;;17.23;12.95;;;;;;;9.08;98.31;100516.44;6130370;23;20324;-83
2022/01/02 10:53:11;;;;;;;16.23;12.63;;;;;;;9.25;95.71;100526.50;6129340;23;20023;-83
2022/01/02 10:55:37;;;;;;;16.98;13.43;;;;;;;9.34;96.23;100512.91;6131159;23;20083;-86
2022/01/02 10:58:07;;;;;;;17.35;13.57;;;;;;;9.42;95.89;100510.06;6155083;23;20009;-86
2022/01/02 11:00:32;;;;;;;16.50;12.88;;;;;;;9.35;94.58;100500.66;6155036;23;20075;-85
2022/01/02 11:02:59;;;;;;;18.90;14.63;;;;;;;9.53;94.77;100491.31;6130927;23;20021;-85
2022/01/02 11:05:27;;;;;;;15.77;13.25;;;;;;;9.61;94.23;100487.22;6130110;23;20021;-86
2022/01/02 11:07:58;;;;;;;16.60;13.50;;;;;;;9.66;93.33;100495.06;6131291;23;20013;-85
2022/01/02 11:10:24;;;;;;;16.35;13.40;;;;;;;9.59;94.14;100489.59;6181447;23;20013;-86
2022/01/02 11:12:51;;;;;;;16.00;13.23;;;;;;;9.69;94.00;100478.38;6154545;23;20021;-85
2022/01/02 11:15:23;;;;;;;16.42;13.02;;;;;;;9.75;92.88;100475.91;6155372;23;20021;-85
2022/01/02 11:17:49;;;;;;;18.65;13.90;;;;;;;9.86;92.55;100468.22;6106897;23;20029;-85
2022/01/02 11:20:21;;;;;;;16.30;12.77;;;;;;;9.83;92.51;100469.81;6155164;23;20020;-85
2022/01/02 11:22:59;;;;;;;17.23;13.55;;;;;;;10.01;92.45;100461.22;6130788;23;20442;-85
2022/01/02 11:25:31;;;;;;;15.40;12.52;;;;;;;10.07;92.27;100451.19;6180845;23;20017;-85
2022/01/02 11:28:00;;;;;;;15.00;12.80;;;;;;;10.10;92.21;100442.06;6154876;23;20379;-85